sensor_id;sensor_type;location;lat;lon;timestamp;temperature;humidity
18337;DHT22;9294;51.106;7.028;2023-03-14T00:01:55;19.30;89.50
18337;DHT22;9294;51.106;7.028;2023-03-14T00:04:22;19.30;89.40
18337;DHT22;9294;51.106;7.028;2023-03-14T00:06:49;19.30;89.40
18337;DHT22;9294;51.106;7.028;2023-03-14T00:09:16;19.30;89.30
18337;DHT22;9294;51.106;7.028;2023-03-14T00:11:43;19.30;89.20
18337;DHT22;9294;51.106;7.028;2023-03-14T00:14:10;19.30;89.20
18337;DHT22;9294;51.106;7.028;2023-03-14T00:16:38;19.30;89.30
18337;DHT22;9294;51.106;7.028;2023-03-14T00:19:05;19.30;89.20
18337;DHT22;9294;51.106;7.028;2023-03-14T00:21:32;19.30;89.10
18337;DHT22;9294;51.106;7.028;2023-03-14T00:23:58;19.30;89.20
18337;DHT22;9294;51.106;7.028;2023-03-14T00:26:25;19.30;89.10
18337;DHT22;9294;51.106;7.028;2023-03-14T00:28:52;19.30;89.10
18337;DHT22;9294;51.106;7.028;2023-03-14T00:31:19;19.30;89.10
18337;DHT22;9294;51.106;7.028;2023-03-14T00:33:48;19.30;89.00
18337;DHT22;9294;51.106;7.028;2023-03-14T00:36:16;19.30;89.00
18337;DHT22;9294;51.106;7.028;2023-03-14T00:38:44;19.30;88.90
18337;DHT22;9294;51.106;7.028;2023-03-14T00:41:14;19.30;88.80
18337;DHT22;9294;51.106;7.028;2023-03-14T00:43:41;19.30;88.80
18337;DHT22;9294;51.106;7.028;2023-03-14T00:46:09;19.30;88.70
18337;DHT22;9294;51.106;7.028;2023-03-14T00:48:36;19.30;88.70
18337;DHT22;9294;51.106;7.028;2023-03-14T00:51:05;19.30;88.80
18337;DHT22;9294;51.106;7.028;2023-03-14T00:53:36;19.30;88.70
18337;DHT22;9294;51.106;7.028;2023-03-14T00:56:04;19.30;88.70
18337;DHT22;9294;51.106;7.028;2023-03-14T00:58:31;19.30;88.60
18337;DHT22;9294;51.106;7.028;2023-03-14T01:00:57;19.30;88.60
18337;DHT22;9294;51.106;7.028;2023-03-14T01:03:24;19.30;88.60
18337;DHT22;9294;51.106;7.028;2023-03-14T01:05:51;19.30;88.60
18337;DHT22;9294;51.106;7.028;2023-03-14T01:08:19;19.30;88.50
18337;DHT22;9294;51.106;7.028;2023-03-14T01:10:45;19.30;88.50
18337;DHT22;9294;51.106;7.028;2023-03-14T01:13:13;19.30;88.30
18337;DHT22;9294;51.106;7.028;2023-03-14T01:15:40;19.30;88.30
18337;DHT22;9294;51.106;7.028;2023-03-14T01:18:07;19.30;88.20
18337;DHT22;9294;51.106;7.028;2023-03-14T01:20:33;19.30;88.20
18337;DHT22;9294;51.106;7.028;2023-03-14T01:23:00;19.30;88.20
18337;DHT22;9294;51.106;7.028;2023-03-14T01:25:28;19.30;88.20
18337;DHT22;9294;51.106;7.028;2023-03-14T01:27:55;19.30;88.20
18337;DHT22;9294;51.106;7.028;2023-03-14T01:30:22;19.30;88.10
18337;DHT22;9294;51.106;7.028;2023-03-14T01:32:48;19.30;88.10
18337;DHT22;9294;51.106;7.028;2023-03-14T01:35:15;19.30;88.10
18337;DHT22;9294;51.106;7.028;2023-03-14T01:37:42;19.20;87.90
18337;DHT22;9294;51.106;7.028;2023-03-14T01:40:11;19.30;88.00
18337;DHT22;9294;51.106;7.028;2023-03-14T01:42:46;19.30;88.10
18337;DHT22;9294;51.106;7.028;2023-03-14T01:46:01;19.30;87.90
18337;DHT22;9294;51.106;7.028;2023-03-14T01:48:42;19.30;87.90
18337;DHT22;9294;51.106;7.028;2023-03-14T01:51:12;19.30;87.90
18337;DHT22;9294;51.106;7.028;2023-03-14T01:53:41;19.30;87.90
18337;DHT22;9294;51.106;7.028;2023-03-14T01:56:10;19.20;87.80
18337;DHT22;9294;51.106;7.028;2023-03-14T01:58:41;19.30;87.90
18337;DHT22;9294;51.106;7.028;2023-03-14T02:01:11;19.30;87.90
18337;DHT22;9294;51.106;7.028;2023-03-14T02:03:46;19.30;87.80
18337;DHT22;9294;51.106;7.028;2023-03-14T02:06:14;19.30;87.80
18337;DHT22;9294;51.106;7.028;2023-03-14T02:08:44;19.30;87.80
18337;DHT22;9294;51.106;7.028;2023-03-14T02:11:14;19.30;87.80
18337;DHT22;9294;51.106;7.028;2023-03-14T02:13:42;19.30;87.70
18337;DHT22;9294;51.106;7.028;2023-03-14T02:16:09;19.20;87.70
18337;DHT22;9294;51.106;7.028;2023-03-14T02:18:36;19.20;87.70
18337;DHT22;9294;51.106;7.028;2023-03-14T02:21:08;19.20;87.80
18337;DHT22;9294;51.106;7.028;2023-03-14T02:23:41;19.20;87.80
18337;DHT22;9294;51.106;7.028;2023-03-14T02:26:13;19.20;87.70
18337;DHT22;9294;51.106;7.028;2023-03-14T02:28:43;19.20;87.70
18337;DHT22;9294;51.106;7.028;2023-03-14T02:31:09;19.20;87.70
18337;DHT22;9294;51.106;7.028;2023-03-14T02:33:38;19.20;87.70
18337;DHT22;9294;51.106;7.028;2023-03-14T02:36:07;19.20;87.60
18337;DHT22;9294;51.106;7.028;2023-03-14T02:38:39;19.20;87.70
18337;DHT22;9294;51.106;7.028;2023-03-14T02:41:07;19.20;87.60
18337;DHT22;9294;51.106;7.028;2023-03-14T02:43:34;19.20;87.70
18337;DHT22;9294;51.106;7.028;2023-03-14T02:46:04;19.20;87.70
18337;DHT22;9294;51.106;7.028;2023-03-14T02:48:34;19.20;87.60
18337;DHT22;9294;51.106;7.028;2023-03-14T02:51:02;19.20;87.60
18337;DHT22;9294;51.106;7.028;2023-03-14T02:53:31;19.20;87.70
18337;DHT22;9294;51.106;7.028;2023-03-14T02:55:59;19.20;87.70
18337;DHT22;9294;51.106;7.028;2023-03-14T02:58:26;19.20;88.30
18337;DHT22;9294;51.106;7.028;2023-03-14T03:00:53;19.10;87.50
18337;DHT22;9294;51.106;7.028;2023-03-14T03:03:21;19.20;87.60
18337;DHT22;9294;51.106;7.028;2023-03-14T03:05:49;19.10;87.40
18337;DHT22;9294;51.106;7.028;2023-03-14T03:08:17;19.10;87.50
18337;DHT22;9294;51.106;7.028;2023-03-14T03:10:43;19.10;87.50
18337;DHT22;9294;51.106;7.028;2023-03-14T03:13:10;19.10;87.60
18337;DHT22;9294;51.106;7.028;2023-03-14T03:15:37;19.10;87.60
18337;DHT22;9294;51.106;7.028;2023-03-14T03:18:05;19.10;87.60
18337;DHT22;9294;51.106;7.028;2023-03-14T03:20:34;19.10;87.60
18337;DHT22;9294;51.106;7.028;2023-03-14T03:23:01;19.00;87.50
18337;DHT22;9294;51.106;7.028;2023-03-14T03:25:28;19.10;87.60
18337;DHT22;9294;51.106;7.028;2023-03-14T03:27:54;19.10;87.60
18337;DHT22;9294;51.106;7.028;2023-03-14T03:30:21;19.10;87.60
18337;DHT22;9294;51.106;7.028;2023-03-14T03:32:48;19.10;87.60
18337;DHT22;9294;51.106;7.028;2023-03-14T03:35:15;19.10;87.70
18337;DHT22;9294;51.106;7.028;2023-03-14T03:37:43;19.10;87.60
18337;DHT22;9294;51.106;7.028;2023-03-14T03:40:10;19.00;87.50
18337;DHT22;9294;51.106;7.028;2023-03-14T03:42:37;19.00;87.60
18337;DHT22;9294;51.106;7.028;2023-03-14T03:45:04;19.00;87.50
18337;DHT22;9294;51.106;7.028;2023-03-14T03:47:31;19.00;87.50
18337;DHT22;9294;51.106;7.028;2023-03-14T03:49:58;19.00;87.50
18337;DHT22;9294;51.106;7.028;2023-03-14T03:52:25;19.00;87.50
18337;DHT22;9294;51.106;7.028;2023-03-14T03:54:53;19.00;87.50
18337;DHT22;9294;51.106;7.028;2023-03-14T03:57:20;19.00;87.50
18337;DHT22;9294;51.106;7.028;2023-03-14T03:59:46;19.00;87.50
18337;DHT22;9294;51.106;7.028;2023-03-14T04:02:13;19.00;87.50
18337;DHT22;9294;51.106;7.028;2023-03-14T04:04:40;19.00;87.40
18337;DHT22;9294;51.106;7.028;2023-03-14T04:07:07;19.00;87.40
18337;DHT22;9294;51.106;7.028;2023-03-14T04:09:34;19.00;87.50
18337;DHT22;9294;51.106;7.028;2023-03-14T04:12:02;19.00;87.40
18337;DHT22;9294;51.106;7.028;2023-03-14T04:14:29;19.00;87.40
18337;DHT22;9294;51.106;7.028;2023-03-14T04:16:56;19.00;87.40
18337;DHT22;9294;51.106;7.028;2023-03-14T04:19:22;19.00;87.40
18337;DHT22;9294;51.106;7.028;2023-03-14T04:21:49;19.00;87.30
18337;DHT22;9294;51.106;7.028;2023-03-14T04:24:16;19.00;87.30
18337;DHT22;9294;51.106;7.028;2023-03-14T04:26:42;19.00;87.30
18337;DHT22;9294;51.106;7.028;2023-03-14T04:29:10;19.00;87.30
18337;DHT22;9294;51.106;7.028;2023-03-14T04:31:37;19.00;87.30
18337;DHT22;9294;51.106;7.028;2023-03-14T04:34:04;18.90;87.20
18337;DHT22;9294;51.106;7.028;2023-03-14T04:36:30;18.90;87.20
18337;DHT22;9294;51.106;7.028;2023-03-14T04:38:57;18.90;87.30
18337;DHT22;9294;51.106;7.028;2023-03-14T04:41:24;18.90;87.20
18337;DHT22;9294;51.106;7.028;2023-03-14T04:43:50;18.90;87.20
18337;DHT22;9294;51.106;7.028;2023-03-14T04:46:19;19.00;87.10
18337;DHT22;9294;51.106;7.028;2023-03-14T04:48:45;19.00;87.20
18337;DHT22;9294;51.106;7.028;2023-03-14T04:51:12;19.00;87.20
18337;DHT22;9294;51.106;7.028;2023-03-14T04:53:39;19.00;87.10
18337;DHT22;9294;51.106;7.028;2023-03-14T04:56:07;19.10;87.20
18337;DHT22;9294;51.106;7.028;2023-03-14T04:58:34;19.10;87.10
18337;DHT22;9294;51.106;7.028;2023-03-14T05:01:04;19.10;86.90
18337;DHT22;9294;51.106;7.028;2023-03-14T05:03:32;19.20;87.10
18337;DHT22;9294;51.106;7.028;2023-03-14T05:06:01;19.20;87.10
18337;DHT22;9294;51.106;7.028;2023-03-14T05:08:28;19.20;87.20
18337;DHT22;9294;51.106;7.028;2023-03-14T05:10:55;19.20;87.30
18337;DHT22;9294;51.106;7.028;2023-03-14T05:13:22;19.30;87.30
18337;DHT22;9294;51.106;7.028;2023-03-14T05:15:50;19.30;87.10
18337;DHT22;9294;51.106;7.028;2023-03-14T05:18:17;19.40;87.30
18337;DHT22;9294;51.106;7.028;2023-03-14T05:20:45;19.40;86.90
18337;DHT22;9294;51.106;7.028;2023-03-14T05:23:12;19.50;87.00
18337;DHT22;9294;51.106;7.028;2023-03-14T05:25:39;19.50;86.80
18337;DHT22;9294;51.106;7.028;2023-03-14T05:28:06;19.50;86.50
18337;DHT22;9294;51.106;7.028;2023-03-14T05:30:33;19.60;86.40
18337;DHT22;9294;51.106;7.028;2023-03-14T05:32:59;19.60;86.40
18337;DHT22;9294;51.106;7.028;2023-03-14T05:35:26;19.60;86.30
18337;DHT22;9294;51.106;7.028;2023-03-14T05:37:54;19.70;86.40
18337;DHT22;9294;51.106;7.028;2023-03-14T05:40:21;20.80;87.30
18337;DHT22;9294;51.106;7.028;2023-03-14T05:42:47;19.70;86.10
18337;DHT22;9294;51.106;7.028;2023-03-14T05:45:14;19.70;85.90
18337;DHT22;9294;51.106;7.028;2023-03-14T05:47:41;19.80;85.90
18337;DHT22;9294;51.106;7.028;2023-03-14T05:50:08;19.80;85.90
18337;DHT22;9294;51.106;7.028;2023-03-14T05:52:35;19.70;85.50
18337;DHT22;9294;51.106;7.028;2023-03-14T05:55:05;19.80;85.70
18337;DHT22;9294;51.106;7.028;2023-03-14T05:57:31;19.70;85.70
18337;DHT22;9294;51.106;7.028;2023-03-14T05:59:58;19.80;85.70
18337;DHT22;9294;51.106;7.028;2023-03-14T06:02:25;19.80;85.70
18337;DHT22;9294;51.106;7.028;2023-03-14T06:04:52;19.80;85.60
18337;DHT22;9294;51.106;7.028;2023-03-14T06:07:18;19.80;85.60
18337;DHT22;9294;51.106;7.028;2023-03-14T06:09:45;19.80;85.60
18337;DHT22;9294;51.106;7.028;2023-03-14T06:12:13;19.80;85.60
18337;DHT22;9294;51.106;7.028;2023-03-14T06:14:40;19.80;85.70
18337;DHT22;9294;51.106;7.028;2023-03-14T06:17:06;19.80;85.80
18337;DHT22;9294;51.106;7.028;2023-03-14T06:19:33;19.70;85.80
18337;DHT22;9294;51.106;7.028;2023-03-14T06:22:00;19.80;85.80
18337;DHT22;9294;51.106;7.028;2023-03-14T06:24:26;19.80;85.80
18337;DHT22;9294;51.106;7.028;2023-03-14T06:26:53;19.80;85.80
18337;DHT22;9294;51.106;7.028;2023-03-14T06:29:21;19.80;88.50
18337;DHT22;9294;51.106;7.028;2023-03-14T06:31:48;19.80;89.20
18337;DHT22;9294;51.106;7.028;2023-03-14T06:34:14;19.80;88.90
18337;DHT22;9294;51.106;7.028;2023-03-14T06:36:41;19.80;88.00
18337;DHT22;9294;51.106;7.028;2023-03-14T06:39:08;19.90;87.80
18337;DHT22;9294;51.106;7.028;2023-03-14T06:41:34;19.80;89.70
18337;DHT22;9294;51.106;7.028;2023-03-14T06:44:01;19.80;90.00
18337;DHT22;9294;51.106;7.028;2023-03-14T06:46:29;19.80;90.30
18337;DHT22;9294;51.106;7.028;2023-03-14T06:48:56;20.00;90.30
18337;DHT22;9294;51.106;7.028;2023-03-14T06:51:23;19.80;90.20
18337;DHT22;9294;51.106;7.028;2023-03-14T06:53:49;19.90;90.00
18337;DHT22;9294;51.106;7.028;2023-03-14T06:56:16;21.10;90.50
18337;DHT22;9294;51.106;7.028;2023-03-14T06:58:43;19.80;90.00
18337;DHT22;9294;51.106;7.028;2023-03-14T07:01:20;19.80;90.00
18337;DHT22;9294;51.106;7.028;2023-03-14T07:03:49;19.80;90.10
18337;DHT22;9294;51.106;7.028;2023-03-14T07:06:15;19.80;90.50
18337;DHT22;9294;51.106;7.028;2023-03-14T07:08:42;19.80;90.30
18337;DHT22;9294;51.106;7.028;2023-03-14T07:11:09;19.70;90.10
18337;DHT22;9294;51.106;7.028;2023-03-14T07:13:36;19.70;90.10
18337;DHT22;9294;51.106;7.028;2023-03-14T07:16:04;19.70;89.60
18337;DHT22;9294;51.106;7.028;2023-03-14T07:18:31;19.80;89.60
18337;DHT22;9294;51.106;7.028;2023-03-14T07:20:59;19.90;89.50
18337;DHT22;9294;51.106;7.028;2023-03-14T07:23:25;19.90;89.70
18337;DHT22;9294;51.106;7.028;2023-03-14T07:25:52;19.90;89.80
18337;DHT22;9294;51.106;7.028;2023-03-14T07:28:19;19.90;90.00
18337;DHT22;9294;51.106;7.028;2023-03-14T07:30:47;19.80;88.60
18337;DHT22;9294;51.106;7.028;2023-03-14T07:33:13;19.80;89.60
18337;DHT22;9294;51.106;7.028;2023-03-14T07:35:40;19.90;89.50
18337;DHT22;9294;51.106;7.028;2023-03-14T07:38:08;19.90;89.70
18337;DHT22;9294;51.106;7.028;2023-03-14T07:40:35;19.80;89.60
18337;DHT22;9294;51.106;7.028;2023-03-14T07:43:02;19.80;89.30
18337;DHT22;9294;51.106;7.028;2023-03-14T07:45:28;19.90;89.40
18337;DHT22;9294;51.106;7.028;2023-03-14T07:47:55;19.90;89.20
18337;DHT22;9294;51.106;7.028;2023-03-14T07:50:23;19.90;89.10
18337;DHT22;9294;51.106;7.028;2023-03-14T07:52:50;19.90;89.00
18337;DHT22;9294;51.106;7.028;2023-03-14T07:55:18;19.90;89.00
18337;DHT22;9294;51.106;7.028;2023-03-14T07:57:45;20.00;88.90
18337;DHT22;9294;51.106;7.028;2023-03-14T08:00:12;20.00;88.70
18337;DHT22;9294;51.106;7.028;2023-03-14T08:02:39;20.00;88.20
18337;DHT22;9294;51.106;7.028;2023-03-14T08:05:06;20.00;88.00
18337;DHT22;9294;51.106;7.028;2023-03-14T08:07:33;20.00;88.10
18337;DHT22;9294;51.106;7.028;2023-03-14T08:10:00;20.10;88.50
18337;DHT22;9294;51.106;7.028;2023-03-14T08:12:28;20.10;88.30
18337;DHT22;9294;51.106;7.028;2023-03-14T08:14:55;20.10;88.00
18337;DHT22;9294;51.106;7.028;2023-03-14T08:17:21;20.10;87.60
18337;DHT22;9294;51.106;7.028;2023-03-14T08:19:48;20.10;87.70
18337;DHT22;9294;51.106;7.028;2023-03-14T08:22:15;20.00;87.50
18337;DHT22;9294;51.106;7.028;2023-03-14T08:24:41;20.10;87.90
18337;DHT22;9294;51.106;7.028;2023-03-14T08:27:08;20.00;87.90
18337;DHT22;9294;51.106;7.028;2023-03-14T08:29:36;20.00;88.50
18337;DHT22;9294;51.106;7.028;2023-03-14T08:32:03;19.90;88.70
18337;DHT22;9294;51.106;7.028;2023-03-14T08:34:30;19.90;88.90
18337;DHT22;9294;51.106;7.028;2023-03-14T08:36:56;19.90;89.00
18337;DHT22;9294;51.106;7.028;2023-03-14T08:39:23;19.90;89.10
18337;DHT22;9294;51.106;7.028;2023-03-14T08:41:50;19.90;89.10
18337;DHT22;9294;51.106;7.028;2023-03-14T08:44:16;19.90;89.20
18337;DHT22;9294;51.106;7.028;2023-03-14T08:46:44;19.90;89.10
18337;DHT22;9294;51.106;7.028;2023-03-14T08:49:11;19.90;89.20
18337;DHT22;9294;51.106;7.028;2023-03-14T08:51:39;19.90;89.10
18337;DHT22;9294;51.106;7.028;2023-03-14T08:54:09;19.90;89.20
18337;DHT22;9294;51.106;7.028;2023-03-14T08:56:35;19.90;89.10
18337;DHT22;9294;51.106;7.028;2023-03-14T08:59:03;19.90;89.20
18337;DHT22;9294;51.106;7.028;2023-03-14T09:01:30;19.90;89.00
18337;DHT22;9294;51.106;7.028;2023-03-14T09:03:58;20.00;88.80
18337;DHT22;9294;51.106;7.028;2023-03-14T09:06:24;19.90;88.90
18337;DHT22;9294;51.106;7.028;2023-03-14T09:08:51;19.90;88.80
18337;DHT22;9294;51.106;7.028;2023-03-14T09:11:18;19.90;89.20
18337;DHT22;9294;51.106;7.028;2023-03-14T09:13:45;19.90;90.00
18337;DHT22;9294;51.106;7.028;2023-03-14T09:16:11;19.90;90.00
18337;DHT22;9294;51.106;7.028;2023-03-14T09:18:38;19.90;89.70
18337;DHT22;9294;51.106;7.028;2023-03-14T09:21:07;19.90;89.70
18337;DHT22;9294;51.106;7.028;2023-03-14T09:23:33;19.90;89.90
18337;DHT22;9294;51.106;7.028;2023-03-14T09:26:00;20.00;89.70
18337;DHT22;9294;51.106;7.028;2023-03-14T09:28:27;20.00;89.60
18337;DHT22;9294;51.106;7.028;2023-03-14T09:30:55;20.00;89.40
18337;DHT22;9294;51.106;7.028;2023-03-14T09:33:22;20.10;89.30
18337;DHT22;9294;51.106;7.028;2023-03-14T09:35:49;20.10;89.30
18337;DHT22;9294;51.106;7.028;2023-03-14T09:38:20;20.10;89.30
18337;DHT22;9294;51.106;7.028;2023-03-14T09:40:47;20.10;89.50
18337;DHT22;9294;51.106;7.028;2023-03-14T09:43:14;20.10;89.40
18337;DHT22;9294;51.106;7.028;2023-03-14T09:45:44;20.20;89.30
18337;DHT22;9294;51.106;7.028;2023-03-14T09:48:16;20.20;89.20
18337;DHT22;9294;51.106;7.028;2023-03-14T09:50:46;20.20;89.00
18337;DHT22;9294;51.106;7.028;2023-03-14T09:53:18;20.20;89.20
18337;DHT22;9294;51.106;7.028;2023-03-14T09:55:46;20.20;89.20
18337;DHT22;9294;51.106;7.028;2023-03-14T09:58:21;20.30;89.10
18337;DHT22;9294;51.106;7.028;2023-03-14T10:00:50;20.30;89.10
18337;DHT22;9294;51.106;7.028;2023-03-14T10:03:25;20.30;89.00
18337;DHT22;9294;51.106;7.028;2023-03-14T10:05:52;20.30;88.90
18337;DHT22;9294;51.106;7.028;2023-03-14T10:08:20;20.30;88.90
18337;DHT22;9294;51.106;7.028;2023-03-14T10:10:47;20.30;87.90
18337;DHT22;9294;51.106;7.028;2023-03-14T10:13:16;20.40;88.80
18337;DHT22;9294;51.106;7.028;2023-03-14T10:15:48;20.40;89.00
18337;DHT22;9294;51.106;7.028;2023-03-14T10:18:15;20.40;89.10
18337;DHT22;9294;51.106;7.028;2023-03-14T10:20:43;20.40;89.10
18337;DHT22;9294;51.106;7.028;2023-03-14T10:23:26;20.40;89.80
18337;DHT22;9294;51.106;7.028;2023-03-14T10:26:06;20.30;89.50
18337;DHT22;9294;51.106;7.028;2023-03-14T10:28:37;20.30;89.50
18337;DHT22;9294;51.106;7.028;2023-03-14T10:31:04;21.00;90.40
18337;DHT22;9294;51.106;7.028;2023-03-14T10:33:32;20.30;90.10
18337;DHT22;9294;51.106;7.028;2023-03-14T10:36:02;20.30;90.00
18337;DHT22;9294;51.106;7.028;2023-03-14T10:38:32;20.40;89.90
18337;DHT22;9294;51.106;7.028;2023-03-14T10:41:00;20.40;89.90
18337;DHT22;9294;51.106;7.028;2023-03-14T10:43:31;20.40;89.40
18337;DHT22;9294;51.106;7.028;2023-03-14T10:46:00;20.50;89.50
18337;DHT22;9294;51.106;7.028;2023-03-14T10:48:32;20.50;89.50
18337;DHT22;9294;51.106;7.028;2023-03-14T10:51:05;20.50;90.10
18337;DHT22;9294;51.106;7.028;2023-03-14T10:53:39;20.50;90.20
18337;DHT22;9294;51.106;7.028;2023-03-14T10:56:07;20.50;90.30
18337;DHT22;9294;51.106;7.028;2023-03-14T10:58:38;20.50;90.80
18337;DHT22;9294;51.106;7.028;2023-03-14T11:01:15;20.50;91.10
18337;DHT22;9294;51.106;7.028;2023-03-14T11:03:48;20.40;91.20
18337;DHT22;9294;51.106;7.028;2023-03-14T11:06:20;20.40;91.30
18337;DHT22;9294;51.106;7.028;2023-03-14T11:08:55;20.30;91.20
18337;DHT22;9294;51.106;7.028;2023-03-14T11:11:26;20.40;91.10
18337;DHT22;9294;51.106;7.028;2023-03-14T11:14:02;20.30;91.10
18337;DHT22;9294;51.106;7.028;2023-03-14T11:16:37;20.30;91.10
18337;DHT22;9294;51.106;7.028;2023-03-14T11:19:16;20.30;91.10
18337;DHT22;9294;51.106;7.028;2023-03-14T11:21:48;20.30;91.20
18337;DHT22;9294;51.106;7.028;2023-03-14T11:24:25;20.20;91.20
18337;DHT22;9294;51.106;7.028;2023-03-14T11:26:59;20.20;91.20
18337;DHT22;9294;51.106;7.028;2023-03-14T11:29:33;20.20;91.40
18337;DHT22;9294;51.106;7.028;2023-03-14T11:32:08;20.20;91.40
18337;DHT22;9294;51.106;7.028;2023-03-14T11:34:42;20.20;91.40
18337;DHT22;9294;51.106;7.028;2023-03-14T11:37:14;20.20;91.40
18337;DHT22;9294;51.106;7.028;2023-03-14T11:39:47;20.20;91.40
18337;DHT22;9294;51.106;7.028;2023-03-14T11:42:17;20.20;91.40
18337;DHT22;9294;51.106;7.028;2023-03-14T11:44:47;20.20;91.40
18337;DHT22;9294;51.106;7.028;2023-03-14T11:47:18;20.10;91.40
18337;DHT22;9294;51.106;7.028;2023-03-14T11:49:50;20.20;91.40
18337;DHT22;9294;51.106;7.028;2023-03-14T11:52:22;20.20;91.40
18337;DHT22;9294;51.106;7.028;2023-03-14T11:54:54;20.20;91.30
18337;DHT22;9294;51.106;7.028;2023-03-14T11:57:23;20.20;91.30
18337;DHT22;9294;51.106;7.028;2023-03-14T11:59:54;20.20;91.20
18337;DHT22;9294;51.106;7.028;2023-03-14T12:02:25;20.20;91.20
18337;DHT22;9294;51.106;7.028;2023-03-14T12:05:19;20.10;91.10
18337;DHT22;9294;51.106;7.028;2023-03-14T12:10:49;20.20;90.90
18337;DHT22;9294;51.106;7.028;2023-03-14T12:13:18;20.20;91.10
18337;DHT22;9294;51.106;7.028;2023-03-14T12:15:49;20.20;91.00
18337;DHT22;9294;51.106;7.028;2023-03-14T12:18:20;20.30;91.00
18337;DHT22;9294;51.106;7.028;2023-03-14T12:20:51;20.20;90.90
18337;DHT22;9294;51.106;7.028;2023-03-14T12:23:20;20.30;90.90
18337;DHT22;9294;51.106;7.028;2023-03-14T12:26:15;20.30;90.90
18337;DHT22;9294;51.106;7.028;2023-03-14T12:28:44;20.30;90.70
18337;DHT22;9294;51.106;7.028;2023-03-14T12:31:38;20.30;90.80
18337;DHT22;9294;51.106;7.028;2023-03-14T12:34:28;20.40;90.60
18337;DHT22;9294;51.106;7.028;2023-03-14T12:37:04;20.40;90.60
18337;DHT22;9294;51.106;7.028;2023-03-14T12:39:39;20.40;91.10
18337;DHT22;9294;51.106;7.028;2023-03-14T12:42:11;20.40;90.60
18337;DHT22;9294;51.106;7.028;2023-03-14T12:44:40;20.40;90.50
18337;DHT22;9294;51.106;7.028;2023-03-14T12:50:15;20.30;90.40
18337;DHT22;9294;51.106;7.028;2023-03-14T12:52:55;20.30;90.30
18337;DHT22;9294;51.106;7.028;2023-03-14T12:55:31;20.30;89.90
18337;DHT22;9294;51.106;7.028;2023-03-14T12:58:04;20.30;89.80
18337;DHT22;9294;51.106;7.028;2023-03-14T13:00:35;20.40;89.00
18337;DHT22;9294;51.106;7.028;2023-03-14T13:03:17;20.40;89.80
18337;DHT22;9294;51.106;7.028;2023-03-14T13:05:52;20.30;89.00
18337;DHT22;9294;51.106;7.028;2023-03-14T13:08:35;20.30;88.70
18337;DHT22;9294;51.106;7.028;2023-03-14T13:11:04;20.30;88.60
18337;DHT22;9294;51.106;7.028;2023-03-14T13:13:34;20.30;88.90
18337;DHT22;9294;51.106;7.028;2023-03-14T13:16:02;20.30;89.40
18337;DHT22;9294;51.106;7.028;2023-03-14T13:18:34;20.40;89.90
18337;DHT22;9294;51.106;7.028;2023-03-14T13:21:03;20.40;90.30
18337;DHT22;9294;51.106;7.028;2023-03-14T13:23:33;20.40;90.40
18337;DHT22;9294;51.106;7.028;2023-03-14T13:26:01;20.40;90.20
18337;DHT22;9294;51.106;7.028;2023-03-14T13:28:30;20.40;90.10
18337;DHT22;9294;51.106;7.028;2023-03-14T13:31:00;20.40;90.00
18337;DHT22;9294;51.106;7.028;2023-03-14T13:33:28;20.40;89.80
18337;DHT22;9294;51.106;7.028;2023-03-14T13:35:56;20.40;89.60
18337;DHT22;9294;51.106;7.028;2023-03-14T13:38:25;20.40;89.50
18337;DHT22;9294;51.106;7.028;2023-03-14T13:40:54;20.30;89.20
18337;DHT22;9294;51.106;7.028;2023-03-14T13:43:27;20.40;89.50
18337;DHT22;9294;51.106;7.028;2023-03-14T13:46:02;20.40;89.40
18337;DHT22;9294;51.106;7.028;2023-03-14T13:48:30;20.40;89.40
18337;DHT22;9294;51.106;7.028;2023-03-14T13:51:00;20.30;89.10
18337;DHT22;9294;51.106;7.028;2023-03-14T13:53:28;20.30;89.00
18337;DHT22;9294;51.106;7.028;2023-03-14T13:55:54;20.30;89.20
18337;DHT22;9294;51.106;7.028;2023-03-14T13:58:26;20.40;89.10
18337;DHT22;9294;51.106;7.028;2023-03-14T14:00:59;19.80;88.50
18337;DHT22;9294;51.106;7.028;2023-03-14T14:03:30;20.40;88.90
18337;DHT22;9294;51.106;7.028;2023-03-14T14:05:58;20.40;89.10
18337;DHT22;9294;51.106;7.028;2023-03-14T14:08:25;20.40;88.80
18337;DHT22;9294;51.106;7.028;2023-03-14T14:10:57;20.40;88.30
18337;DHT22;9294;51.106;7.028;2023-03-14T14:13:26;20.40;87.80
18337;DHT22;9294;51.106;7.028;2023-03-14T14:15:54;20.40;87.70
18337;DHT22;9294;51.106;7.028;2023-03-14T14:18:24;20.40;87.60
18337;DHT22;9294;51.106;7.028;2023-03-14T14:20:53;20.40;87.70
18337;DHT22;9294;51.106;7.028;2023-03-14T14:23:22;20.40;87.90
18337;DHT22;9294;51.106;7.028;2023-03-14T14:25:51;20.40;88.20
18337;DHT22;9294;51.106;7.028;2023-03-14T14:28:24;20.40;88.10
18337;DHT22;9294;51.106;7.028;2023-03-14T14:31:05;20.40;87.90
18337;DHT22;9294;51.106;7.028;2023-03-14T14:33:39;20.40;87.80
18337;DHT22;9294;51.106;7.028;2023-03-14T14:36:16;20.40;88.20
18337;DHT22;9294;51.106;7.028;2023-03-14T14:38:49;20.40;88.20
18337;DHT22;9294;51.106;7.028;2023-03-14T14:41:16;20.40;88.20
18337;DHT22;9294;51.106;7.028;2023-03-14T14:43:43;20.30;85.70
18337;DHT22;9294;51.106;7.028;2023-03-14T14:46:16;20.20;86.20
18337;DHT22;9294;51.106;7.028;2023-03-14T14:48:43;20.30;87.10
18337;DHT22;9294;51.106;7.028;2023-03-14T14:51:10;20.20;85.30
18337;DHT22;9294;51.106;7.028;2023-03-14T14:53:41;20.20;86.40
18337;DHT22;9294;51.106;7.028;2023-03-14T14:56:16;20.20;87.30
18337;DHT22;9294;51.106;7.028;2023-03-14T14:58:44;20.20;87.30
18337;DHT22;9294;51.106;7.028;2023-03-14T15:01:14;20.10;87.40
18337;DHT22;9294;51.106;7.028;2023-03-14T15:03:43;20.10;87.50
18337;DHT22;9294;51.106;7.028;2023-03-14T15:06:12;20.10;87.90
18337;DHT22;9294;51.106;7.028;2023-03-14T15:08:42;20.00;88.20
18337;DHT22;9294;51.106;7.028;2023-03-14T15:11:14;20.00;88.70
18337;DHT22;9294;51.106;7.028;2023-03-14T15:13:42;20.00;88.70
18337;DHT22;9294;51.106;7.028;2023-03-14T15:16:10;20.00;88.80
18337;DHT22;9294;51.106;7.028;2023-03-14T15:18:37;20.10;89.10
18337;DHT22;9294;51.106;7.028;2023-03-14T15:21:04;20.10;89.30
18337;DHT22;9294;51.106;7.028;2023-03-14T15:23:31;20.10;89.40
18337;DHT22;9294;51.106;7.028;2023-03-14T15:25:59;20.10;89.30
18337;DHT22;9294;51.106;7.028;2023-03-14T15:28:27;20.10;89.60
18337;DHT22;9294;51.106;7.028;2023-03-14T15:30:56;20.10;89.60
18337;DHT22;9294;51.106;7.028;2023-03-14T15:33:24;20.10;89.60
18337;DHT22;9294;51.106;7.028;2023-03-14T15:35:51;20.10;89.60
18337;DHT22;9294;51.106;7.028;2023-03-14T15:38:20;20.10;89.50
18337;DHT22;9294;51.106;7.028;2023-03-14T15:40:48;20.20;89.70
18337;DHT22;9294;51.106;7.028;2023-03-14T15:43:16;20.20;89.60
18337;DHT22;9294;51.106;7.028;2023-03-14T15:45:43;20.20;89.70
18337;DHT22;9294;51.106;7.028;2023-03-14T15:48:14;20.20;89.90
18337;DHT22;9294;51.106;7.028;2023-03-14T15:50:41;20.20;90.10
18337;DHT22;9294;51.106;7.028;2023-03-14T15:53:08;20.20;90.00
18337;DHT22;9294;51.106;7.028;2023-03-14T15:55:35;20.30;90.10
18337;DHT22;9294;51.106;7.028;2023-03-14T15:58:01;20.30;90.00
18337;DHT22;9294;51.106;7.028;2023-03-14T16:00:30;20.30;90.00
18337;DHT22;9294;51.106;7.028;2023-03-14T16:02:57;20.30;90.00